Аэропорт: Елизово. Петропавловск-Камчатский

ICAO: UHPP

METAR:
2019-07-23 18:00:00
UHPP 231800Z VRB01MPS 9999 -SHRA SCT045CB 12/12 Q1009 R34L/190060 NOSIG RMK MT OBSC QFE753/1004
METAR:
2019-07-23 16:53:00
TAF UHPP 231653Z 2318/2424 18003G12MPS 5000 -SHRA BR BKN012 OVC030CB TEMPO 2318/2321 1000 SHRA BR VV003 TEMPO 2321/2412 2000 SHRA BR VV004 TEMPO 2412/2421 0900 SHRA FG VV003 FM242100 18003G12MPS 9999 SCT040